MSC Jordan — HPMK — position and weather

sailwx.info

Track history (hours):
 
Tides and Currents Weather Stations Pressure Air Temp Water Temp Dewpoint Dewpoint Depression Visibility Wind Speed Wind Dir Waves Ship Positions

MSC Jordan

Last reported at 2017-Nov-20 00:29 UTC. Time now 2017-Nov-22 07:31 UTC.
Position N 59°35' E 023°36'.

Length 237 m; draft 10 m.

Type: Ship. MMSI: 355194000.

Date/timePositionNaut miles runAvg speedWind from/ knotsBaromVisibWave heightAir tempDewpointWater temp
2017-Nov-20 00:29N 59°35' E 023°36'817.0
2017-Nov-20 00:00N 59°32' E 023°21'917.0
2017-Nov-19 23:28N 59°29' E 023°04'27816.6
2017-Nov-19 06:41N 56°08' E 017°01'316.4
2017-Nov-19 06:30N 56°06' E 016°57'816.5
2017-Nov-19 06:00N 56°02' E 016°45'816.5
2017-Nov-19 05:30N 55°58' E 016°32'816.5
2017-Nov-19 05:00N 55°54' E 016°19'816.5
2017-Nov-19 04:30N 55°50' E 016°06'816.6
2017-Nov-19 04:00N 55°46' E 015°54'816.6
2017-Nov-19 03:30N 55°42' E 015°41'816.7
2017-Nov-19 03:00N 55°38' E 015°28'816.7
2017-Nov-19 02:30N 55°34' E 015°15'816.7
2017-Nov-19 02:00N 55°30' E 015°02'916.6
2017-Nov-19 01:28N 55°25' E 014°48'816.4
2017-Nov-19 01:00N 55°22' E 014°37'816.1
2017-Nov-19 00:30N 55°15' E 014°27'1416.2
2017-Nov-18 23:37N 55°04' E 014°12'316.1
2017-Nov-18 23:27N 55°02' E 014°09'1116.3
2017-Nov-18 22:47N 54°58' E 013°52'616.4
2017-Nov-18 22:27N 54°56' E 013°43'4816.6
2017-Nov-18 19:33N 54°38' E 012°25'116.9
2017-Nov-18 19:29N 54°37' E 012°23'816.0
2017-Nov-18 19:01N 54°31' E 012°16'1514.8
2017-Nov-18 18:00N 54°24' E 011°53'1217.0
2017-Nov-18 17:17N 54°28' E 011°34'517.2
2017-Nov-18 17:00N 54°30' E 011°26'917.6
2017-Nov-18 16:30N 54°34' E 011°12'917.4
2017-Nov-18 16:00N 54°39' E 010°60'816.1
2017-Nov-18 15:30N 54°45' E 010°51'917.8
2017-Nov-18 15:00N 54°54' E 010°53'917.0
2017-Nov-18 14:30N 55°01' E 011°01'918.4
2017-Nov-18 14:00N 55°10' E 011°03'816.0
2017-Nov-18 13:30N 55°18' E 011°02'10416.5
2017-Nov-18 07:13N 56°59' E 011°43'519.1
2017-Nov-18 06:59N 57°04' E 011°40'919.2
2017-Nov-18 06:29N 57°12' E 011°34'919.3
2017-Nov-18 06:00N 57°21' E 011°29'918.6
2017-Nov-18 05:30N 57°29' E 011°20'1019.4
2017-Nov-18 05:00N 57°36' E 011°07'1019.8
2017-Nov-18 04:30N 57°43' E 010°53'919.2
2017-Nov-18 04:00N 57°48' E 010°38'1020.5
2017-Nov-18 03:30N 57°46' E 010°19'34917.7
2017-Nov-17 07:47N 53°02' E 004°23'1017.3
2017-Nov-17 07:11N 52°52' E 004°17'7517.3
2017-Nov-17 02:51N 51°47' E 003°17'4 9.1
2017-Nov-17 02:22N 51°43' E 003°14'614.1
2017-Nov-17 01:59N 51°38' E 003°11'817.8
2017-Nov-17 01:30N 51°31' E 003°04'612.1
2017-Nov-17 01:00N 51°25' E 003°04'816.9
2017-Nov-17 00:30N 51°24' E 003°17'816.4
2017-Nov-17 00:00N 51°25' E 003°31'510.0
2017-Nov-16 23:30N 51°26' E 003°38'714.1
2017-Nov-16 23:00N 51°22' E 003°47'713.1
2017-Nov-16 22:31N 51°23' E 003°57'4 7.0
2017-Nov-16 22:00N 51°24' E 004°02'510.7
2017-Nov-16 21:30N 51°24' E 004°11'510.4
2017-Nov-16 21:00N 51°20' E 004°17'2 4.1
2017-Nov-16 20:29N 51°18' E 004°16'0 0.0
2017-Nov-16 19:59N 51°18' E 004°16'0 0.0
2017-Nov-16 19:29N 51°18' E 004°16'0 0.0
2017-Nov-16 18:59N 51°18' E 004°16'0 0.0
2017-Nov-16 18:26N 51°18' E 004°16'0 0.0
2017-Nov-16 17:53N 51°18' E 004°16'0 0.0
2017-Nov-16 17:29N 51°18' E 004°16'0 0.0
2017-Nov-16 16:59N 51°18' E 004°16'0 0.0
2017-Nov-16 16:28N 51°18' E 004°16'0 0.0
2017-Nov-16 15:58N 51°18' E 004°16'0 0.0
2017-Nov-16 15:27N 51°18' E 004°16'0 0.0
2017-Nov-16 15:01N 51°18' E 004°16'0 0.0
2017-Nov-16 14:27N 51°18' E 004°16'0 0.0
2017-Nov-16 13:57N 51°18' E 004°16'0 0.0
2017-Nov-16 13:28N 51°18' E 004°16'0 0.0
2017-Nov-16 12:57N 51°18' E 004°16'0 0.0
2017-Nov-16 12:27N 51°18' E 004°16'0 0.0
2017-Nov-16 11:58N 51°18' E 004°16'0 0.0
2017-Nov-16 11:31N 51°18' E 004°16'0 0.0
2017-Nov-16 11:01N 51°18' E 004°16'0 0.0
2017-Nov-16 10:31N 51°18' E 004°16'0 0.0
2017-Nov-16 09:58N 51°18' E 004°16'0 0.0
2017-Nov-16 09:31N 51°18' E 004°16'0 0.0
2017-Nov-16 09:01N 51°18' E 004°16'0 0.0
2017-Nov-16 08:31N 51°18' E 004°16'0 0.0
2017-Nov-16 07:58N 51°18' E 004°16'0 0.0
2017-Nov-16 07:30N 51°18' E 004°16'0 0.0
2017-Nov-16 07:01N 51°18' E 004°16'0 0.0
2017-Nov-16 06:30N 51°18' E 004°16'0 0.0
2017-Nov-16 05:57N 51°18' E 004°16'0 0.0
2017-Nov-16 05:31N 51°18' E 004°16'0 0.0
2017-Nov-16 04:57N 51°18' E 004°16'0 0.0
2017-Nov-16 04:31N 51°18' E 004°16'0 0.0
2017-Nov-16 04:00N 51°18' E 004°16'0 0.0
2017-Nov-16 03:30N 51°18' E 004°16'0 0.0
2017-Nov-16 03:00N 51°18' E 004°16'0 0.0
2017-Nov-16 02:30N 51°18' E 004°16'0 0.0
2017-Nov-16 02:00N 51°18' E 004°16'0 0.0
2017-Nov-16 01:27N 51°18' E 004°16'0 0.0
2017-Nov-16 00:57N 51°18' E 004°16'0 0.0
2017-Nov-16 00:27N 51°18' E 004°16'0 0.0
2017-Nov-15 23:57N 51°18' E 004°16'0 0.0
2017-Nov-15 23:30N 51°18' E 004°16'0 0.0
2017-Nov-15 23:00N 51°18' E 004°16'0 0.0
2017-Nov-15 22:30N 51°18' E 004°16'0 0.0
2017-Nov-15 22:00N 51°18' E 004°16'0 0.0
2017-Nov-15 21:31N 51°18' E 004°16'0 0.0
2017-Nov-15 20:57N 51°18' E 004°16'0 0.0
2017-Nov-15 20:31N 51°18' E 004°16'0 0.7
2017-Nov-15 20:00N 51°18' E 004°16'3 5.7
2017-Nov-15 19:31N 51°21' E 004°16'4 8.7
2017-Nov-15 19:00N 51°23' E 004°09'611.4
2017-Nov-15 18:30N 51°26' E 004°01'712.9
2017-Nov-15 18:00N 51°21' E 003°54'713.4
2017-Nov-15 17:30N 51°23' E 003°43'510.8
2017-Nov-15 17:00N 51°26' E 003°36'611.2
2017-Nov-15 16:30N 51°25' E 003°27'815.6
2017-Nov-15 16:01N 51°25' E 003°15'815.9
2017-Nov-15 15:30N 51°24' E 003°02'917.2
2017-Nov-15 15:00N 51°22' E 002°49'5 9.7
2017-Nov-15 14:31N 51°22' E 002°41'3 5.7
2017-Nov-15 13:58N 51°22' E 002°36'5 9.2
2017-Nov-15 13:27N 51°22' E 002°29'410.3
2017-Nov-15 13:01N 51°20' E 002°22'612.9
2017-Nov-15 12:30N 51°17' E 002°13'918.3
2017-Nov-15 12:00N 51°13' E 001°60'918.6
2017-Nov-15 11:30N 51°08' E 001°48'919.0
2017-Nov-15 11:00N 51°00' E 001°38'919.0
2017-Nov-15 10:30N 50°53' E 001°29'6519.2
2017-Nov-15 07:06N 50°18' E 000°02'221.9
2017-Nov-15 07:00N 50°17' W 000°01'1122.0
2017-Nov-15 06:30N 50°14' W 000°18'2922.4
2017-Nov-15 05:13N 50°06' W 001°01'522.4
2017-Nov-15 05:01N 50°04' W 001°08'1122.4
2017-Nov-15 04:31N 50°01' W 001°25'1122.1
2017-Nov-15 04:01N 49°58' W 001°41'1221.5
2017-Nov-15 03:26N 49°57' W 002°00'1720.5
2017-Nov-15 02:37N 49°54' W 002°26'220.3
2017-Nov-15 02:30N 49°53' W 002°29'1020.1
2017-Nov-15 02:00N 49°51' W 002°44'2019.7
2017-Nov-15 01:01N 49°42' W 003°12'17717.2
2017-Nov-14 14:42N 47°40' W 006°26'89218.1
2017-Nov-12 13:30N 33°03' W 010°03'1418.8
2017-Nov-12 12:46N 32°50' W 010°03'6018.7
2017-Nov-12 09:31N 31°49' W 010°06'018.9
2017-Nov-12 09:30N 31°49' W 010°06'3019.2
2017-Nov-12 07:57N 31°19' W 010°03'4219.7
2017-Nov-12 05:50N 30°38' W 010°00'619.4
2017-Nov-12 05:30N 30°33' W 009°56'1020.0
2017-Nov-12 04:59N 30°26' W 009°47'7 0.3
2017-Nov-11 03:43N 30°26' W 009°39'0 0.0
2017-Nov-11 03:13N 30°26' W 009°39'0 0.0
2017-Nov-11 02:58N 30°26' W 009°39'0 0.0
2017-Nov-11 01:55N 30°26' W 009°39'0 0.0
2017-Nov-11 01:13N 30°26' W 009°39'0 0.0
2017-Nov-11 00:31N 30°26' W 009°39'0 0.0
2017-Nov-11 00:13N 30°26' W 009°39'0 0.0
2017-Nov-10 23:58N 30°26' W 009°39'0 0.0
2017-Nov-10 23:19N 30°26' W 009°39'0 0.0
2017-Nov-10 22:49N 30°26' W 009°39'0 0.0
2017-Nov-10 22:19N 30°26' W 009°39'0 0.0
2017-Nov-10 21:49N 30°26' W 009°39'0 0.0
2017-Nov-10 21:19N 30°26' W 009°39'0 0.0
2017-Nov-10 20:37N 30°26' W 009°39'0 0.0
2017-Nov-10 20:07N 30°26' W 009°39'0 0.0
2017-Nov-10 19:52N 30°26' W 009°39'0 0.0
2017-Nov-10 17:37N 30°26' W 009°39'0 0.0
2017-Nov-10 17:25N 30°26' W 009°39'0 0.0
2017-Nov-10 11:55N 30°26' W 009°39'0 0.0
2017-Nov-10 11:28N 30°26' W 009°39'0 0.0
2017-Nov-10 09:22N 30°26' W 009°39'1 2.7
2017-Nov-10 08:56N 30°25' W 009°38'7 9.7
2017-Nov-10 08:13N 30°20' W 009°44'316.3
2017-Nov-10 08:00N 30°18' W 009°47'1017.2
2017-Nov-10 07:26N 30°18' W 009°59'817.0
2017-Nov-10 07:00N 30°17' W 010°07'1016.6
2017-Nov-10 06:22N 30°14' W 010°19'616.5
2017-Nov-10 06:00N 30°13' W 010°26'816.2
2017-Nov-10 05:30N 30°11' W 010°35'816.1
2017-Nov-10 05:00N 30°09' W 010°44'815.7
2017-Nov-10 04:30N 30°07' W 010°53'815.2
2017-Nov-10 04:00N 30°05' W 011°01'  
Track history (hours):
 
Tides and Currents Weather Stations Pressure Air Temp Water Temp Dewpoint Dewpoint Depression Visibility Wind Speed Wind Dir Waves Ship Positions

MSC Jordan

Last reported at 2017-Nov-20 00:29 UTC. Time now 2017-Nov-22 07:31 UTC.
Position N 59°35' E 023°36'.

Length 237 m; draft 10 m.

Type: Ship. MMSI: 355194000.

Date/timePositionNaut miles runAvg speedWind from/ knotsBaromVisibWave heightAir tempDewpointWater temp
2017-Nov-20 00:29N 59°35' E 023°36'817.0
2017-Nov-20 00:00N 59°32' E 023°21'917.0
2017-Nov-19 23:28N 59°29' E 023°04'27816.6
2017-Nov-19 06:41N 56°08' E 017°01'316.4
2017-Nov-19 06:30N 56°06' E 016°57'816.5
2017-Nov-19 06:00N 56°02' E 016°45'816.5
2017-Nov-19 05:30N 55°58' E 016°32'816.5
2017-Nov-19 05:00N 55°54' E 016°19'816.5
2017-Nov-19 04:30N 55°50' E 016°06'816.6
2017-Nov-19 04:00N 55°46' E 015°54'816.6
2017-Nov-19 03:30N 55°42' E 015°41'816.7
2017-Nov-19 03:00N 55°38' E 015°28'816.7
2017-Nov-19 02:30N 55°34' E 015°15'816.7
2017-Nov-19 02:00N 55°30' E 015°02'916.6
2017-Nov-19 01:28N 55°25' E 014°48'816.4
2017-Nov-19 01:00N 55°22' E 014°37'816.1
2017-Nov-19 00:30N 55°15' E 014°27'1416.2
2017-Nov-18 23:37N 55°04' E 014°12'316.1
2017-Nov-18 23:27N 55°02' E 014°09'1116.3
2017-Nov-18 22:47N 54°58' E 013°52'616.4
2017-Nov-18 22:27N 54°56' E 013°43'4816.6
2017-Nov-18 19:33N 54°38' E 012°25'116.9
2017-Nov-18 19:29N 54°37' E 012°23'816.0
2017-Nov-18 19:01N 54°31' E 012°16'1514.8
2017-Nov-18 18:00N 54°24' E 011°53'1217.0
2017-Nov-18 17:17N 54°28' E 011°34'517.2
2017-Nov-18 17:00N 54°30' E 011°26'917.6
2017-Nov-18 16:30N 54°34' E 011°12'917.4
2017-Nov-18 16:00N 54°39' E 010°60'816.1
2017-Nov-18 15:30N 54°45' E 010°51'917.8
2017-Nov-18 15:00N 54°54' E 010°53'917.0
2017-Nov-18 14:30N 55°01' E 011°01'918.4
2017-Nov-18 14:00N 55°10' E 011°03'816.0
2017-Nov-18 13:30N 55°18' E 011°02'10416.5
2017-Nov-18 07:13N 56°59' E 011°43'519.1
2017-Nov-18 06:59N 57°04' E 011°40'919.2
2017-Nov-18 06:29N 57°12' E 011°34'919.3
2017-Nov-18 06:00N 57°21' E 011°29'918.6
2017-Nov-18 05:30N 57°29' E 011°20'1019.4
2017-Nov-18 05:00N 57°36' E 011°07'1019.8
2017-Nov-18 04:30N 57°43' E 010°53'919.2
2017-Nov-18 04:00N 57°48' E 010°38'1020.5
2017-Nov-18 03:30N 57°46' E 010°19'34917.7
2017-Nov-17 07:47N 53°02' E 004°23'1017.3
2017-Nov-17 07:11N 52°52' E 004°17'7517.3
2017-Nov-17 02:51N 51°47' E 003°17'4 9.1
2017-Nov-17 02:22N 51°43' E 003°14'614.1
2017-Nov-17 01:59N 51°38' E 003°11'817.8
2017-Nov-17 01:30N 51°31' E 003°04'612.1
2017-Nov-17 01:00N 51°25' E 003°04'816.9
2017-Nov-17 00:30N 51°24' E 003°17'816.4
2017-Nov-17 00:00N 51°25' E 003°31'510.0
2017-Nov-16 23:30N 51°26' E 003°38'714.1
2017-Nov-16 23:00N 51°22' E 003°47'713.1
2017-Nov-16 22:31N 51°23' E 003°57'4 7.0
2017-Nov-16 22:00N 51°24' E 004°02'510.7
2017-Nov-16 21:30N 51°24' E 004°11'510.4
2017-Nov-16 21:00N 51°20' E 004°17'2 4.1
2017-Nov-16 20:29N 51°18' E 004°16'0 0.0
2017-Nov-16 19:59N 51°18' E 004°16'0 0.0
2017-Nov-16 19:29N 51°18' E 004°16'0 0.0
2017-Nov-16 18:59N 51°18' E 004°16'0 0.0
2017-Nov-16 18:26N 51°18' E 004°16'0 0.0
2017-Nov-16 17:53N 51°18' E 004°16'0 0.0
2017-Nov-16 17:29N 51°18' E 004°16'0 0.0
2017-Nov-16 16:59N 51°18' E 004°16'0 0.0
2017-Nov-16 16:28N 51°18' E 004°16'0 0.0
2017-Nov-16 15:58N 51°18' E 004°16'0 0.0
2017-Nov-16 15:27N 51°18' E 004°16'0 0.0
2017-Nov-16 15:01N 51°18' E 004°16'0 0.0
2017-Nov-16 14:27N 51°18' E 004°16'0 0.0
2017-Nov-16 13:57N 51°18' E 004°16'0 0.0
2017-Nov-16 13:28N 51°18' E 004°16'0 0.0
2017-Nov-16 12:57N 51°18' E 004°16'0 0.0
2017-Nov-16 12:27N 51°18' E 004°16'0 0.0
2017-Nov-16 11:58N 51°18' E 004°16'0 0.0
2017-Nov-16 11:31N 51°18' E 004°16'0 0.0
2017-Nov-16 11:01N 51°18' E 004°16'0 0.0
2017-Nov-16 10:31N 51°18' E 004°16'0 0.0
2017-Nov-16 09:58N 51°18' E 004°16'0 0.0
2017-Nov-16 09:31N 51°18' E 004°16'0 0.0
2017-Nov-16 09:01N 51°18' E 004°16'0 0.0
2017-Nov-16 08:31N 51°18' E 004°16'0 0.0
2017-Nov-16 07:58N 51°18' E 004°16'0 0.0
2017-Nov-16 07:30N 51°18' E 004°16'0 0.0
2017-Nov-16 07:01N 51°18' E 004°16'0 0.0
2017-Nov-16 06:30N 51°18' E 004°16'0 0.0
2017-Nov-16 05:57N 51°18' E 004°16'0 0.0
2017-Nov-16 05:31N 51°18' E 004°16'0 0.0
2017-Nov-16 04:57N 51°18' E 004°16'0 0.0
2017-Nov-16 04:31N 51°18' E 004°16'0 0.0
2017-Nov-16 04:00N 51°18' E 004°16'0 0.0
2017-Nov-16 03:30N 51°18' E 004°16'0 0.0
2017-Nov-16 03:00N 51°18' E 004°16'0 0.0
2017-Nov-16 02:30N 51°18' E 004°16'0 0.0
2017-Nov-16 02:00N 51°18' E 004°16'0 0.0
2017-Nov-16 01:27N 51°18' E 004°16'0 0.0
2017-Nov-16 00:57N 51°18' E 004°16'0 0.0
2017-Nov-16 00:27N 51°18' E 004°16'0 0.0
2017-Nov-15 23:57N 51°18' E 004°16'0 0.0
2017-Nov-15 23:30N 51°18' E 004°16'0 0.0
2017-Nov-15 23:00N 51°18' E 004°16'0 0.0
2017-Nov-15 22:30N 51°18' E 004°16'0 0.0
2017-Nov-15 22:00N 51°18' E 004°16'0 0.0
2017-Nov-15 21:31N 51°18' E 004°16'0 0.0
2017-Nov-15 20:57N 51°18' E 004°16'0 0.0
2017-Nov-15 20:31N 51°18' E 004°16'0 0.7
2017-Nov-15 20:00N 51°18' E 004°16'3 5.7
2017-Nov-15 19:31N 51°21' E 004°16'4 8.7
2017-Nov-15 19:00N 51°23' E 004°09'611.4
2017-Nov-15 18:30N 51°26' E 004°01'712.9
2017-Nov-15 18:00N 51°21' E 003°54'713.4
2017-Nov-15 17:30N 51°23' E 003°43'510.8
2017-Nov-15 17:00N 51°26' E 003°36'611.2
2017-Nov-15 16:30N 51°25' E 003°27'815.6
2017-Nov-15 16:01N 51°25' E 003°15'815.9
2017-Nov-15 15:30N 51°24' E 003°02'917.2
2017-Nov-15 15:00N 51°22' E 002°49'5 9.7
2017-Nov-15 14:31N 51°22' E 002°41'3 5.7
2017-Nov-15 13:58N 51°22' E 002°36'5 9.2
2017-Nov-15 13:27N 51°22' E 002°29'410.3
2017-Nov-15 13:01N 51°20' E 002°22'612.9
2017-Nov-15 12:30N 51°17' E 002°13'918.3
2017-Nov-15 12:00N 51°13' E 001°60'918.6
2017-Nov-15 11:30N 51°08' E 001°48'919.0
2017-Nov-15 11:00N 51°00' E 001°38'919.0
2017-Nov-15 10:30N 50°53' E 001°29'6519.2
2017-Nov-15 07:06N 50°18' E 000°02'221.9
2017-Nov-15 07:00N 50°17' W 000°01'1122.0
2017-Nov-15 06:30N 50°14' W 000°18'2922.4
2017-Nov-15 05:13N 50°06' W 001°01'522.4
2017-Nov-15 05:01N 50°04' W 001°08'1122.4
2017-Nov-15 04:31N 50°01' W 001°25'1122.1
2017-Nov-15 04:01N 49°58' W 001°41'1221.5
2017-Nov-15 03:26N 49°57' W 002°00'1720.5
2017-Nov-15 02:37N 49°54' W 002°26'220.3
2017-Nov-15 02:30N 49°53' W 002°29'1020.1
2017-Nov-15 02:00N 49°51' W 002°44'2019.7
2017-Nov-15 01:01N 49°42' W 003°12'17717.2
2017-Nov-14 14:42N 47°40' W 006°26'89218.1
2017-Nov-12 13:30N 33°03' W 010°03'1418.8
2017-Nov-12 12:46N 32°50' W 010°03'6018.7
2017-Nov-12 09:31N 31°49' W 010°06'018.9
2017-Nov-12 09:30N 31°49' W 010°06'3019.2
2017-Nov-12 07:57N 31°19' W 010°03'4219.7
2017-Nov-12 05:50N 30°38' W 010°00'619.4
2017-Nov-12 05:30N 30°33' W 009°56'1020.0
2017-Nov-12 04:59N 30°26' W 009°47'7 0.3
2017-Nov-11 03:43N 30°26' W 009°39'0 0.0
2017-Nov-11 03:13N 30°26' W 009°39'0 0.0
2017-Nov-11 02:58N 30°26' W 009°39'0 0.0
2017-Nov-11 01:55N 30°26' W 009°39'0 0.0
2017-Nov-11 01:13N 30°26' W 009°39'0 0.0
2017-Nov-11 00:31N 30°26' W 009°39'0 0.0
2017-Nov-11 00:13N 30°26' W 009°39'0 0.0
2017-Nov-10 23:58N 30°26' W 009°39'0 0.0
2017-Nov-10 23:19N 30°26' W 009°39'0 0.0
2017-Nov-10 22:49N 30°26' W 009°39'0 0.0
2017-Nov-10 22:19N 30°26' W 009°39'0 0.0
2017-Nov-10 21:49N 30°26' W 009°39'0 0.0
2017-Nov-10 21:19N 30°26' W 009°39'0 0.0
2017-Nov-10 20:37N 30°26' W 009°39'0 0.0
2017-Nov-10 20:07N 30°26' W 009°39'0 0.0
2017-Nov-10 19:52N 30°26' W 009°39'0 0.0
2017-Nov-10 17:37N 30°26' W 009°39'0 0.0
2017-Nov-10 17:25N 30°26' W 009°39'0 0.0
2017-Nov-10 11:55N 30°26' W 009°39'0 0.0
2017-Nov-10 11:28N 30°26' W 009°39'0 0.0
2017-Nov-10 09:22N 30°26' W 009°39'1 2.7
2017-Nov-10 08:56N 30°25' W 009°38'7 9.7
2017-Nov-10 08:13N 30°20' W 009°44'316.3
2017-Nov-10 08:00N 30°18' W 009°47'1017.2
2017-Nov-10 07:26N 30°18' W 009°59'817.0
2017-Nov-10 07:00N 30°17' W 010°07'1016.6
2017-Nov-10 06:22N 30°14' W 010°19'616.5
2017-Nov-10 06:00N 30°13' W 010°26'816.2
2017-Nov-10 05:30N 30°11' W 010°35'816.1
2017-Nov-10 05:00N 30°09' W 010°44'815.7
2017-Nov-10 04:30N 30°07' W 010°53'815.2
2017-Nov-10 04:00N 30°05' W 011°01'  

Dump ship's entire track history